createdAt,value
2019-02-15T00:01:27.589Z,2.60
2019-02-15T00:03:55.641Z,2.60
2019-02-15T00:06:23.746Z,2.30
2019-02-15T00:08:51.673Z,2.20
2019-02-15T00:11:19.817Z,2.30
2019-02-15T00:13:47.892Z,2.40
2019-02-15T00:16:15.838Z,2.50
2019-02-15T00:18:53.258Z,2.50
2019-02-15T00:21:24.084Z,2.40
2019-02-15T00:23:52.191Z,2.30
2019-02-15T00:26:21.045Z,2.30
2019-02-15T00:28:49.257Z,2.10
2019-02-15T00:31:19.661Z,2.30
2019-02-15T00:33:47.521Z,2.20
2019-02-15T00:36:15.443Z,2.30
2019-02-15T00:38:43.383Z,2.20
2019-02-15T00:41:11.417Z,2.10
2019-02-15T00:43:39.485Z,2.20
2019-02-15T00:46:35.634Z,2.10
2019-02-15T00:49:05.712Z,2.20
2019-02-15T00:52:02.414Z,2.20
2019-02-15T00:55:02.204Z,2.30
2019-02-15T00:57:48.190Z,2.30
2019-02-15T01:00:34.822Z,2.20
2019-02-15T01:03:23.332Z,2.10
2019-02-15T01:06:10.896Z,2.20
2019-02-15T01:08:55.039Z,2.20
2019-02-15T01:11:37.339Z,2.10
2019-02-15T01:14:05.430Z,2.20
2019-02-15T01:16:33.385Z,2.20
2019-02-15T01:19:01.535Z,2.10
2019-02-15T01:21:29.620Z,2.30
2019-02-15T01:23:57.833Z,2.20
2019-02-15T01:26:40.306Z,2.20
2019-02-15T01:29:28.121Z,2.10
2019-02-15T01:32:22.084Z,2.10
2019-02-15T01:34:58.719Z,1.90
2019-02-15T01:38:01.558Z,1.90
2019-02-15T01:40:39.599Z,2.00
2019-02-15T01:43:20.385Z,2.00
2019-02-15T01:46:06.412Z,1.90
2019-02-15T01:48:34.246Z,1.90
2019-02-15T01:51:02.293Z,1.90
2019-02-15T01:53:30.395Z,1.90
2019-02-15T01:55:58.842Z,2.00
2019-02-15T01:58:26.728Z,2.00
2019-02-15T02:00:54.685Z,1.80
2019-02-15T02:03:22.686Z,2.00
2019-02-15T02:05:50.627Z,1.90
2019-02-15T02:08:22.497Z,1.80
2019-02-15T02:10:50.636Z,1.80
2019-02-15T02:13:18.956Z,1.70
2019-02-15T02:15:47.012Z,1.80
2019-02-15T02:18:15.588Z,1.70
2019-02-15T02:20:44.577Z,1.80
2019-02-15T02:23:12.647Z,1.80
2019-02-15T02:25:40.786Z,1.60
2019-02-15T02:28:09.140Z,1.70
2019-02-15T02:30:37.022Z,1.50
2019-02-15T02:33:04.946Z,1.80
2019-02-15T02:35:33.113Z,1.90
2019-02-15T02:38:01.761Z,1.80
2019-02-15T02:40:29.717Z,1.70
2019-02-15T02:42:58.186Z,1.80
2019-02-15T02:45:26.312Z,1.70
2019-02-15T02:47:54.366Z,1.50
2019-02-15T02:50:22.460Z,1.80
2019-02-15T02:52:50.671Z,1.70
2019-02-15T02:55:18.625Z,1.50
2019-02-15T02:57:46.651Z,1.40
2019-02-15T03:00:14.675Z,1.40
2019-02-15T03:02:42.919Z,1.20
2019-02-15T03:05:11.511Z,1.50
2019-02-15T03:07:39.434Z,1.40
2019-02-15T03:10:07.544Z,1.30
2019-02-15T03:12:35.587Z,1.40
2019-02-15T03:15:03.842Z,1.50
2019-02-15T03:17:31.808Z,1.30
2019-02-15T03:20:00.188Z,1.40
2019-02-15T03:22:28.669Z,1.40
2019-02-15T03:24:56.715Z,1.30
2019-02-15T03:27:24.695Z,1.40
2019-02-15T03:29:52.627Z,1.40
2019-02-15T03:32:20.569Z,1.30
2019-02-15T03:34:48.719Z,1.20
2019-02-15T03:37:32.901Z,1.20
2019-02-15T03:40:12.838Z,1.20
2019-02-15T03:42:40.856Z,1.10
2019-02-15T03:45:08.805Z,1.20
2019-02-15T03:47:36.755Z,1.30
2019-02-15T03:50:05.307Z,1.30
2019-02-15T03:52:33.253Z,1.10
2019-02-15T03:55:01.588Z,1.00
2019-02-15T03:57:29.522Z,1.00
2019-02-15T03:59:57.862Z,1.10
2019-02-15T04:02:26.209Z,1.10
2019-02-15T04:04:54.209Z,1.20
2019-02-15T04:07:22.672Z,1.20
2019-02-15T04:09:50.552Z,1.20
2019-02-15T04:12:18.487Z,1.10
2019-02-15T04:14:46.321Z,1.20
2019-02-15T04:17:14.533Z,1.10
2019-02-15T04:19:43.081Z,1.00
2019-02-15T04:22:11.176Z,0.90
2019-02-15T04:24:39.246Z,0.80
2019-02-15T04:27:07.076Z,1.00
2019-02-15T04:29:35.062Z,1.20
2019-02-15T04:32:03.261Z,1.20
2019-02-15T04:34:31.235Z,1.10
2019-02-15T04:36:59.414Z,1.10
2019-02-15T04:39:27.452Z,1.00
2019-02-15T04:41:55.382Z,1.10
2019-02-15T04:44:23.776Z,1.10
2019-02-15T04:46:52.092Z,1.10
2019-02-15T04:49:20.085Z,1.00
2019-02-15T04:51:48.188Z,0.90
2019-02-15T04:54:16.196Z,0.90
2019-02-15T04:56:44.216Z,0.90
2019-02-15T04:59:12.203Z,1.00
2019-02-15T05:01:40.499Z,1.00
2019-02-15T05:04:08.409Z,1.10
2019-02-15T05:06:36.336Z,1.10
2019-02-15T05:09:05.205Z,1.00
2019-02-15T05:11:33.316Z,1.00
2019-02-15T05:14:01.376Z,1.00
2019-02-15T05:16:29.397Z,1.00
2019-02-15T05:18:57.453Z,0.90
2019-02-15T05:21:25.319Z,0.90
2019-02-15T05:23:53.345Z,0.90
2019-02-15T05:26:21.278Z,1.00
2019-02-15T05:28:49.483Z,1.00
2019-02-15T05:31:17.929Z,0.90
2019-02-15T05:33:46.191Z,1.00
2019-02-15T05:36:14.303Z,1.00
2019-02-15T05:38:42.346Z,1.00
2019-02-15T05:41:10.254Z,0.80
2019-02-15T05:43:40.606Z,0.90
2019-02-15T05:46:08.588Z,1.00
2019-02-15T05:48:36.470Z,1.00
2019-02-15T05:51:04.394Z,1.00
2019-02-15T05:53:32.295Z,0.90
2019-02-15T05:56:00.230Z,1.00
2019-02-15T05:58:28.783Z,0.90
2019-02-15T06:00:56.802Z,0.80
2019-02-15T06:03:25.145Z,0.80
2019-02-15T06:05:53.180Z,0.70
2019-02-15T06:08:21.419Z,0.80
2019-02-15T06:10:49.505Z,0.80
2019-02-15T06:13:17.876Z,0.80
2019-02-15T06:15:46.230Z,0.80
2019-02-15T06:18:14.598Z,0.80
2019-02-15T06:20:42.614Z,0.90
2019-02-15T06:23:10.608Z,0.80
2019-02-15T06:25:39.160Z,0.90
2019-02-15T06:28:07.613Z,0.70
2019-02-15T06:30:35.604Z,0.80
2019-02-15T06:33:03.556Z,0.80
2019-02-15T06:35:33.140Z,0.90
2019-02-15T06:38:01.972Z,0.80
2019-02-15T06:40:30.071Z,0.70
2019-02-15T06:43:00.507Z,0.70
2019-02-15T06:45:28.541Z,0.70
2019-02-15T06:47:56.691Z,0.70
2019-02-15T06:50:24.692Z,0.80
2019-02-15T06:52:52.698Z,0.80
2019-02-15T06:55:20.725Z,0.90
2019-02-15T06:57:49.765Z,0.80
2019-02-15T07:00:37.256Z,0.90
2019-02-15T07:03:37.184Z,0.90
2019-02-15T07:06:05.077Z,0.80
2019-02-15T07:08:33.108Z,0.80
2019-02-15T07:11:01.080Z,0.90
2019-02-15T07:13:29.292Z,0.90
2019-02-15T07:15:57.736Z,1.00
2019-02-15T07:18:25.754Z,1.00
2019-02-15T07:20:54.095Z,0.90
2019-02-15T07:23:22.062Z,0.90
2019-02-15T07:25:50.078Z,0.90
2019-02-15T07:28:18.201Z,1.00
2019-02-15T07:30:46.539Z,0.90
2019-02-15T07:33:14.452Z,1.00
2019-02-15T07:35:42.578Z,1.10
2019-02-15T07:38:10.539Z,1.00
2019-02-15T07:40:39.019Z,1.10
2019-02-15T07:43:07.096Z,1.20
2019-02-15T07:45:42.635Z,1.00
2019-02-15T07:48:04.941Z,1.10
2019-02-15T07:50:33.240Z,1.20
2019-02-15T07:53:01.869Z,1.20
2019-02-15T07:55:29.921Z,1.30
2019-02-15T07:57:57.865Z,1.50
2019-02-15T08:00:26.173Z,1.70
2019-02-15T08:02:54.112Z,2.00
2019-02-15T08:05:23.538Z,2.20
2019-02-15T08:07:51.843Z,2.30
2019-02-15T08:10:19.729Z,2.20
2019-02-15T08:12:47.621Z,2.10
2019-02-15T08:15:16.183Z,2.10
2019-02-15T08:17:44.731Z,2.20
2019-02-15T08:20:12.793Z,2.30
2019-02-15T08:22:41.236Z,2.30
2019-02-15T08:25:09.469Z,2.40
2019-02-15T08:27:37.581Z,2.30
2019-02-15T08:30:08.426Z,2.20
2019-02-15T08:32:36.569Z,2.30
2019-02-15T08:35:05.561Z,2.60
2019-02-15T08:37:33.700Z,2.70
2019-02-15T08:40:02.411Z,2.80
2019-02-15T08:42:30.752Z,2.90
2019-02-15T08:44:59.425Z,3.00
2019-02-15T08:47:27.986Z,3.00
2019-02-15T08:49:57.868Z,3.20
2019-02-15T08:52:26.213Z,3.50
2019-02-15T08:54:54.196Z,3.70
2019-02-15T08:57:22.184Z,3.90
2019-02-15T08:59:50.195Z,4.10
2019-02-15T09:02:21.539Z,3.90
2019-02-15T09:04:49.484Z,3.80
2019-02-15T09:07:17.672Z,3.90
2019-02-15T09:09:45.706Z,4.00
2019-02-15T09:12:13.610Z,4.10
2019-02-15T09:14:41.526Z,4.10
2019-02-15T09:17:09.771Z,4.20
2019-02-15T09:19:37.806Z,4.20
2019-02-15T09:22:06.062Z,4.40
2019-02-15T09:24:34.691Z,4.50
2019-02-15T09:27:13.357Z,4.60
2019-02-15T09:29:41.369Z,4.80
2019-02-15T09:32:09.383Z,4.80
2019-02-15T09:34:37.294Z,4.80
2019-02-15T09:37:05.316Z,5.20
2019-02-15T09:39:33.250Z,5.20
2019-02-15T09:42:01.433Z,5.50
2019-02-15T09:44:29.961Z,5.60
2019-02-15T09:46:58.006Z,5.60
2019-02-15T09:49:26.039Z,5.80
2019-02-15T09:51:55.565Z,5.90
2019-02-15T09:54:24.162Z,6.00
2019-02-15T09:56:52.124Z,6.30
2019-02-15T09:59:19.997Z,6.40
2019-02-15T10:01:47.947Z,6.40
2019-02-15T10:04:16.456Z,6.70
2019-02-15T10:06:44.969Z,7.00
2019-02-15T10:09:13.039Z,7.20
2019-02-15T10:11:41.274Z,7.50
2019-02-15T10:14:09.278Z,7.80
2019-02-15T10:16:37.396Z,8.00
2019-02-15T10:19:05.320Z,8.30
2019-02-15T10:21:33.317Z,8.50
2019-02-15T10:24:01.628Z,8.50
2019-02-15T10:26:29.622Z,8.20
2019-02-15T10:28:58.044Z,8.60
2019-02-15T10:31:27.371Z,8.50
2019-02-15T10:33:55.359Z,8.70
2019-02-15T10:36:23.520Z,9.00
2019-02-15T10:38:53.638Z,9.10
2019-02-15T10:41:21.710Z,9.00
2019-02-15T10:43:49.988Z,9.30
2019-02-15T10:46:17.867Z,9.50
2019-02-15T10:48:46.052Z,9.60
2019-02-15T10:51:14.017Z,9.80
2019-02-15T10:53:41.965Z,9.90
2019-02-15T10:56:10.946Z,10.10
2019-02-15T10:58:39.144Z,10.30
2019-02-15T11:01:07.293Z,10.20
2019-02-15T11:03:36.635Z,10.30
2019-02-15T11:06:05.513Z,10.40
2019-02-15T11:08:33.531Z,10.50
2019-02-15T11:11:01.621Z,10.60
2019-02-15T11:13:29.739Z,10.70
2019-02-15T11:15:57.770Z,10.60
2019-02-15T11:18:26.437Z,10.80
2019-02-15T11:20:54.316Z,11.00
2019-02-15T11:23:22.785Z,11.00
2019-02-15T11:25:50.791Z,10.80
2019-02-15T11:28:18.994Z,10.90
2019-02-15T11:30:46.853Z,11.00
2019-02-15T11:33:14.878Z,11.10
2019-02-15T11:35:42.834Z,10.70
2019-02-15T11:38:11.500Z,10.90
2019-02-15T11:40:39.613Z,11.10
2019-02-15T11:43:07.724Z,11.20
2019-02-15T11:45:35.690Z,11.50
2019-02-15T11:48:04.034Z,11.00
2019-02-15T11:50:32.384Z,10.60
2019-02-15T11:53:00.524Z,10.70
2019-02-15T11:55:28.907Z,10.90
2019-02-15T11:57:57.273Z,11.10
2019-02-15T12:00:31.518Z,11.20
2019-02-15T12:02:59.489Z,11.30
2019-02-15T12:05:27.523Z,11.30
2019-02-15T12:07:55.744Z,11.30
2019-02-15T12:10:23.651Z,11.40
2019-02-15T12:12:51.633Z,11.70
2019-02-15T12:15:19.807Z,11.90
2019-02-15T12:17:48.142Z,11.90
2019-02-15T12:20:16.253Z,12.00
2019-02-15T12:22:44.738Z,12.30
2019-02-15T12:25:12.888Z,12.30
2019-02-15T12:27:41.061Z,12.10
2019-02-15T12:30:10.348Z,12.30
2019-02-15T12:32:38.465Z,12.60
2019-02-15T12:35:07.224Z,12.90
2019-02-15T12:37:35.246Z,12.60
2019-02-15T12:40:03.692Z,12.60
2019-02-15T12:42:32.199Z,12.30
2019-02-15T12:45:00.310Z,12.40
2019-02-15T12:47:28.383Z,12.80
2019-02-15T12:49:56.272Z,13.10
2019-02-15T12:52:24.686Z,13.30
2019-02-15T12:54:53.021Z,12.90
2019-02-15T12:57:20.936Z,13.30
2019-02-15T12:59:48.938Z,12.90
2019-02-15T13:02:17.055Z,13.30
2019-02-15T13:04:45.348Z,13.90
2019-02-15T13:07:13.436Z,14.20
2019-02-15T13:09:41.803Z,14.60
2019-02-15T13:12:09.694Z,14.80
2019-02-15T13:14:37.634Z,14.60
2019-02-15T13:17:06.441Z,14.30
2019-02-15T13:19:34.476Z,14.10
2019-02-15T13:22:02.611Z,14.10
2019-02-15T13:24:30.598Z,14.20
2019-02-15T13:26:58.726Z,14.00
2019-02-15T13:29:26.694Z,14.10
2019-02-15T13:31:54.796Z,14.20
2019-02-15T13:34:22.703Z,14.40
2019-02-15T13:36:51.434Z,14.50
2019-02-15T13:39:19.843Z,14.40
2019-02-15T13:41:48.127Z,14.20
2019-02-15T13:44:17.960Z,14.30
2019-02-15T13:46:46.193Z,14.50
2019-02-15T13:49:14.272Z,14.50
2019-02-15T13:51:42.628Z,14.60
2019-02-15T13:54:10.874Z,15.00
2019-02-15T13:56:40.527Z,15.30
2019-02-15T13:59:09.132Z,15.40
2019-02-15T14:01:37.089Z,15.50
2019-02-15T14:04:05.630Z,15.60
2019-02-15T14:06:33.698Z,15.80
2019-02-15T14:09:01.668Z,15.90
2019-02-15T14:11:29.743Z,15.90
2019-02-15T14:13:57.746Z,16.20
2019-02-15T14:16:25.701Z,16.20
2019-02-15T14:18:53.919Z,15.90
2019-02-15T14:21:22.204Z,15.80
2019-02-15T14:23:50.391Z,15.80
2019-02-15T14:26:18.578Z,16.10
2019-02-15T14:28:47.094Z,16.40
2019-02-15T14:31:15.206Z,16.70
2019-02-15T14:33:43.204Z,16.90
2019-02-15T14:36:11.578Z,17.00
2019-02-15T14:38:39.603Z,17.20
2019-02-15T14:41:07.795Z,17.20
2019-02-15T14:43:36.399Z,17.30
2019-02-15T14:46:04.434Z,17.30
2019-02-15T14:48:32.878Z,17.30
2019-02-15T14:51:01.225Z,17.20
2019-02-15T14:53:29.244Z,17.30
2019-02-15T14:55:57.660Z,17.20
2019-02-15T14:58:25.855Z,17.20
2019-02-15T15:00:54.212Z,16.70
2019-02-15T15:03:22.555Z,16.60
2019-02-15T15:05:50.558Z,16.70
2019-02-15T15:08:18.605Z,16.70
2019-02-15T15:10:46.619Z,16.80
2019-02-15T15:13:14.860Z,16.90
2019-02-15T15:15:43.439Z,16.80
2019-02-15T15:18:13.410Z,16.80
2019-02-15T15:20:41.538Z,16.40
2019-02-15T15:23:15.809Z,16.50
2019-02-15T15:25:44.275Z,16.50
2019-02-15T15:28:12.398Z,16.60
2019-02-15T15:30:40.474Z,16.50
2019-02-15T15:33:08.440Z,16.50
2019-02-15T15:35:36.307Z,16.50
2019-02-15T15:38:04.761Z,16.50
2019-02-15T15:40:32.800Z,16.50
2019-02-15T15:43:00.856Z,16.50
2019-02-15T15:45:28.967Z,16.40
2019-02-15T15:47:57.167Z,16.20
2019-02-15T15:50:25.678Z,16.10
2019-02-15T15:52:53.754Z,15.90
2019-02-15T15:55:21.857Z,15.60
2019-02-15T15:57:50.198Z,15.60
2019-02-15T16:00:18.883Z,15.40
2019-02-15T16:02:47.163Z,15.20
2019-02-15T16:05:15.226Z,15.10
2019-02-15T16:07:46.384Z,15.20
2019-02-15T16:10:14.643Z,15.30
2019-02-15T16:12:42.771Z,15.00
2019-02-15T16:15:11.942Z,15.20
2019-02-15T16:17:40.785Z,15.20
2019-02-15T16:20:10.251Z,15.10
2019-02-15T16:22:38.512Z,14.80
2019-02-15T16:25:06.902Z,14.90
2019-02-15T16:27:35.230Z,14.80
2019-02-15T16:30:03.733Z,14.60
2019-02-15T16:32:31.831Z,14.40
2019-02-15T16:34:59.946Z,14.10
2019-02-15T16:37:27.884Z,13.60
2019-02-15T16:39:55.805Z,13.70
2019-02-15T16:42:23.763Z,13.50
2019-02-15T16:44:52.201Z,13.40
2019-02-15T16:47:20.303Z,13.20
2019-02-15T16:49:48.289Z,13.00
2019-02-15T16:52:16.386Z,12.60
2019-02-15T16:54:44.778Z,12.50
2019-02-15T16:57:12.769Z,12.30
2019-02-15T16:59:40.764Z,12.10
2019-02-15T17:02:08.792Z,11.70
2019-02-15T17:04:37.056Z,11.60
2019-02-15T17:07:05.045Z,11.30
2019-02-15T17:09:33.041Z,11.20
2019-02-15T17:12:01.473Z,11.10
2019-02-15T17:14:29.450Z,11.00
2019-02-15T17:16:57.282Z,11.00
2019-02-15T17:19:25.432Z,10.70
2019-02-15T17:21:53.438Z,10.70
2019-02-15T17:24:21.549Z,10.60
2019-02-15T17:26:51.013Z,10.40
2019-02-15T17:29:19.135Z,10.10
2019-02-15T17:31:47.355Z,10.20
2019-02-15T17:34:15.275Z,9.90
2019-02-15T17:36:43.343Z,9.90
2019-02-15T17:39:11.557Z,10.00
2019-02-15T17:41:39.461Z,9.90
2019-02-15T17:44:07.604Z,9.80
2019-02-15T17:46:35.630Z,9.60
2019-02-15T17:49:03.656Z,9.50
2019-02-15T17:51:31.808Z,9.40
2019-02-15T17:53:59.890Z,9.50
2019-02-15T17:56:27.895Z,9.50
2019-02-15T17:58:56.210Z,9.20
2019-02-15T18:01:24.177Z,8.90
2019-02-15T18:03:52.071Z,9.10
2019-02-15T18:06:20.266Z,9.10
2019-02-15T18:08:48.348Z,9.20
2019-02-15T18:11:16.299Z,9.30
2019-02-15T18:13:44.283Z,9.20
2019-02-15T18:16:12.592Z,8.90
2019-02-15T18:18:40.758Z,8.90
2019-02-15T18:21:09.208Z,8.90
2019-02-15T18:23:37.318Z,8.80
2019-02-15T18:26:05.256Z,8.80
2019-02-15T18:28:33.486Z,8.90
2019-02-15T18:31:01.552Z,8.80
2019-02-15T18:33:31.728Z,8.90
2019-02-15T18:36:00.228Z,9.20
2019-02-15T18:38:28.283Z,8.90
2019-02-15T18:40:56.596Z,8.90
2019-02-15T18:43:24.633Z,8.70
2019-02-15T18:45:52.504Z,8.70
2019-02-15T18:48:38.901Z,8.80
2019-02-15T18:51:06.927Z,8.80
2019-02-15T18:53:34.943Z,8.90
2019-02-15T18:56:02.951Z,8.90
2019-02-15T18:58:31.200Z,8.70
2019-02-15T19:00:59.123Z,8.70
2019-02-15T19:03:27.201Z,8.50
2019-02-15T19:05:55.321Z,8.40
2019-02-15T19:08:24.047Z,8.50
2019-02-15T19:10:52.153Z,8.40
2019-02-15T19:13:20.092Z,8.30
2019-02-15T19:15:48.105Z,8.30
2019-02-15T19:18:16.180Z,8.20
2019-02-15T19:20:44.408Z,7.90
2019-02-15T19:23:12.416Z,7.90
2019-02-15T19:25:40.439Z,8.00
2019-02-15T19:28:08.545Z,7.90
2019-02-15T19:30:36.927Z,7.90
2019-02-15T19:33:05.115Z,7.70
2019-02-15T19:35:33.205Z,7.70
2019-02-15T19:38:01.242Z,7.60
2019-02-15T19:40:29.178Z,7.50
2019-02-15T19:42:57.305Z,7.70
2019-02-15T19:45:25.418Z,7.50
2019-02-15T19:47:53.794Z,7.50
2019-02-15T19:50:22.189Z,7.50
2019-02-15T19:52:50.555Z,7.60
2019-02-15T19:55:18.582Z,7.60
2019-02-15T19:57:46.844Z,7.80
2019-02-15T20:00:16.614Z,7.80
2019-02-15T20:02:44.569Z,7.50
2019-02-15T20:05:12.851Z,7.60
2019-02-15T20:07:40.793Z,7.70
2019-02-15T20:10:12.408Z,7.50
2019-02-15T20:12:40.393Z,7.70
2019-02-15T20:15:10.409Z,7.80
2019-02-15T20:17:38.363Z,7.60
2019-02-15T20:20:09.413Z,7.50
2019-02-15T20:22:37.464Z,7.50
2019-02-15T20:25:06.611Z,7.50
2019-02-15T20:27:34.951Z,7.40
2019-02-15T20:30:03.577Z,7.30
2019-02-15T20:32:31.512Z,7.20
2019-02-15T20:34:59.564Z,7.40
2019-02-15T20:37:27.582Z,7.60
2019-02-15T20:39:55.885Z,7.60
2019-02-15T20:42:23.997Z,7.50
2019-02-15T20:44:52.042Z,7.70
2019-02-15T20:47:20.351Z,7.70
2019-02-15T20:49:57.519Z,7.60
2019-02-15T20:52:18.288Z,7.50
2019-02-15T20:54:47.069Z,7.80
2019-02-15T20:57:14.986Z,7.70
2019-02-15T20:59:43.479Z,7.80
2019-02-15T21:02:11.504Z,7.80
2019-02-15T21:04:39.424Z,7.80
2019-02-15T21:07:07.328Z,8.30
2019-02-15T21:09:35.340Z,8.20
2019-02-15T21:12:03.394Z,8.40
2019-02-15T21:14:31.434Z,8.50
2019-02-15T21:16:59.524Z,8.50
2019-02-15T21:19:27.571Z,8.50
2019-02-15T21:21:55.703Z,8.40
2019-02-15T21:24:24.248Z,8.40
2019-02-15T21:26:52.329Z,8.30
2019-02-15T21:29:20.598Z,8.10
2019-02-15T21:31:48.898Z,8.00
2019-02-15T21:34:17.219Z,7.90
2019-02-15T21:36:45.691Z,7.80
2019-02-15T21:39:13.708Z,7.80
2019-02-15T21:41:41.621Z,7.70
2019-02-15T21:44:09.729Z,7.60
2019-02-15T21:46:37.671Z,7.90
2019-02-15T21:49:05.651Z,7.60
2019-02-15T21:51:33.657Z,7.70
2019-02-15T21:54:01.705Z,7.80
2019-02-15T21:56:29.829Z,7.90
2019-02-15T21:58:57.859Z,7.90
2019-02-15T22:01:25.746Z,8.00
2019-02-15T22:03:53.695Z,8.00
2019-02-15T22:06:21.588Z,7.80
2019-02-15T22:08:50.078Z,7.80
2019-02-15T22:11:18.157Z,7.50
2019-02-15T22:13:46.115Z,7.40
2019-02-15T22:16:14.005Z,7.30
2019-02-15T22:18:42.091Z,7.60
2019-02-15T22:21:10.280Z,7.50
2019-02-15T22:23:38.410Z,7.40
2019-02-15T22:26:06.767Z,7.30
2019-02-15T22:28:34.865Z,7.40
2019-02-15T22:31:03.334Z,7.30
2019-02-15T22:33:32.254Z,7.40
2019-02-15T22:36:00.501Z,7.70
2019-02-15T22:38:28.743Z,7.70
2019-02-15T22:41:12.183Z,7.70
2019-02-15T22:43:41.624Z,7.70
2019-02-15T22:46:09.610Z,7.70
2019-02-15T22:48:37.663Z,8.00
2019-02-15T22:51:05.861Z,7.80
2019-02-15T22:53:33.800Z,7.80
2019-02-15T22:56:01.780Z,8.10
2019-02-15T22:58:30.040Z,8.10
2019-02-15T23:01:06.641Z,8.70
2019-02-15T23:03:35.764Z,8.90
2019-02-15T23:06:03.903Z,9.00
2019-02-15T23:08:32.317Z,9.30
2019-02-15T23:11:00.548Z,9.40
2019-02-15T23:13:28.610Z,9.20
2019-02-15T23:15:56.700Z,9.20
2019-02-15T23:18:24.791Z,9.10
2019-02-15T23:20:52.992Z,8.90
2019-02-15T23:23:21.205Z,8.80
2019-02-15T23:25:49.101Z,9.20
2019-02-15T23:28:17.489Z,10.00
2019-02-15T23:30:45.611Z,10.40
2019-02-15T23:33:13.906Z,10.70
2019-02-15T23:35:42.473Z,10.90
2019-02-15T23:38:10.543Z,11.10
2019-02-15T23:40:38.528Z,11.30
2019-02-15T23:43:06.525Z,11.30
2019-02-15T23:45:34.568Z,11.40
2019-02-15T23:48:02.841Z,11.30
2019-02-15T23:50:30.891Z,11.30
2019-02-15T23:52:58.921Z,11.40
2019-02-15T23:55:26.921Z,11.00
2019-02-15T23:57:55.047Z,11.10
